Time;durP1;ratioP1;P1;durP2;ratioP2;P2;SDS_P1;SDS_P2;PMS_P1;PMS_P2;Temp;Humidity;BMP_temperature;BMP_pressure;BME280_temperature;BME280_humidity;BME280_pressure;Samples;Min_cycle;Max_cycle;Signal;HPM_P1;HPM_P2
2023/07/19 00:01:28;;;;;;;4.47;1.65;;;;;;;14.98;100.00;100432.19;5112902;28;20065;-92
2023/07/19 00:03:53;;;;;;;6.70;2.15;;;;;;;14.82;100.00;100436.03;5111410;28;20028;-92
2023/07/19 00:06:18;;;;;;;6.28;2.33;;;;;;;14.90;100.00;100439.75;5111286;28;20385;-92
2023/07/19 00:08:44;;;;;;;8.13;2.70;;;;;;;15.01;100.00;100435.50;5114145;28;20115;-92
2023/07/19 00:11:09;;;;;;;3.28;1.73;;;;;;;15.00;100.00;100432.06;5118201;28;20457;-92
2023/07/19 00:13:34;;;;;;;8.98;2.50;;;;;;;15.06;100.00;100439.38;5120183;28;20461;-92
2023/07/19 00:16:00;;;;;;;8.10;2.53;;;;;;;14.93;100.00;100431.69;5118284;28;20038;-92
2023/07/19 00:18:25;;;;;;;5.10;2.42;;;;;;;14.88;100.00;100433.81;5119275;28;20414;-92
2023/07/19 00:20:51;;;;;;;9.32;2.50;;;;;;;14.92;100.00;100435.25;5119382;28;20031;-92
2023/07/19 00:23:16;;;;;;;6.43;2.17;;;;;;;14.87;100.00;100429.56;5119368;28;20023;-93
2023/07/19 00:25:41;;;;;;;7.20;3.15;;;;;;;14.99;100.00;100428.63;5119323;28;20018;-92
2023/07/19 00:28:07;;;;;;;4.50;1.83;;;;;;;14.99;100.00;100427.81;5119161;28;20073;-92
2023/07/19 00:30:32;;;;;;;9.07;2.55;;;;;;;14.92;100.00;100422.25;5117801;28;20085;-92
2023/07/19 00:32:58;;;;;;;8.52;2.53;;;;;;;14.96;100.00;100422.84;5117801;28;20027;-92
2023/07/19 00:35:23;;;;;;;7.60;2.15;;;;;;;14.92;100.00;100419.66;5119425;28;20102;-92
2023/07/19 00:37:48;;;;;;;7.22;2.28;;;;;;;14.92;100.00;100424.84;5117975;28;20030;-92
2023/07/19 00:40:14;;;;;;;4.25;2.47;;;;;;;14.86;100.00;100422.72;5117951;28;20023;-92
2023/07/19 00:42:39;;;;;;;6.07;2.20;;;;;;;14.80;100.00;100424.94;5118965;28;20040;-92
2023/07/19 00:45:05;;;;;;;8.55;2.28;;;;;;;14.87;100.00;100416.56;5117570;28;20020;-92
2023/07/19 00:47:33;;;;;;;3.45;1.75;;;;;;;14.80;100.00;100428.34;5117262;28;20450;-93
2023/07/19 00:49:58;;;;;;;5.13;2.40;;;;;;;14.95;100.00;100429.81;5117687;28;20023;-93
2023/07/19 00:52:24;;;;;;;8.73;2.30;;;;;;;14.98;100.00;100426.16;5118948;28;20077;-93
2023/07/19 00:54:49;;;;;;;8.57;2.35;;;;;;;14.99;100.00;100422.59;5119231;28;20024;-92
2023/07/19 00:57:15;;;;;;;8.20;2.70;;;;;;;14.90;100.00;100424.16;5119133;28;20024;-93
2023/07/19 00:59:41;;;;;;;5.68;2.63;;;;;;;14.89;100.00;100424.25;5119294;28;20449;-92
2023/07/19 01:02:07;;;;;;;13.13;2.85;;;;;;;14.94;100.00;100420.34;5118602;28;20049;-92
2023/07/19 01:04:33;;;;;;;7.43;2.47;;;;;;;14.94;100.00;100420.34;5118452;28;20034;-92
2023/07/19 01:06:59;;;;;;;10.55;2.22;;;;;;;14.87;100.00;100418.34;5117100;28;20027;-93
2023/07/19 01:09:26;;;;;;;5.80;2.63;;;;;;;14.90;100.00;100418.09;5118615;28;20035;-93
2023/07/19 01:11:51;;;;;;;12.95;2.80;;;;;;;14.95;100.00;100416.81;5117566;28;20015;-93
2023/07/19 01:14:17;;;;;;;5.47;2.08;;;;;;;14.96;100.00;100418.47;5117115;28;20024;-92
2023/07/19 01:16:42;;;;;;;5.25;2.33;;;;;;;14.92;100.00;100417.06;5117133;28;20365;-92
2023/07/19 01:19:09;;;;;;;10.20;3.08;;;;;;;14.81;100.00;100413.63;5118484;28;20023;-92
2023/07/19 01:21:34;;;;;;;7.10;2.30;;;;;;;14.80;100.00;100412.75;5114544;28;20028;-92
2023/07/19 01:24:00;;;;;;;7.03;2.40;;;;;;;14.77;100.00;100413.00;5115043;28;20032;-92
2023/07/19 01:26:25;;;;;;;8.68;3.03;;;;;;;14.74;100.00;100413.25;5115067;28;20023;-93
2023/07/19 01:28:51;;;;;;;9.60;2.53;;;;;;;14.72;100.00;100410.75;5115353;28;20480;-92
2023/07/19 01:31:16;;;;;;;7.97;3.00;;;;;;;14.76;100.00;100411.38;5113742;28;20036;-92
2023/07/19 01:33:41;;;;;;;6.88;2.65;;;;;;;14.81;100.00;100419.63;5114968;28;20488;-92
2023/07/19 01:36:07;;;;;;;5.07;2.35;;;;;;;14.77;100.00;100419.03;5114937;28;20028;-93
2023/07/19 01:38:33;;;;;;;7.07;2.40;;;;;;;14.83;100.00;100412.56;5114985;28;20051;-92
2023/07/19 01:40:58;;;;;;;5.60;2.40;;;;;;;14.85;100.00;100413.28;5115323;28;20068;-92
2023/07/19 01:43:23;;;;;;;7.85;2.60;;;;;;;14.91;100.00;100417.16;5114903;28;20022;-92
2023/07/19 01:45:49;;;;;;;7.90;2.58;;;;;;;14.89;100.00;100414.69;5113689;28;20110;-92
2023/07/19 01:48:16;;;;;;;5.88;2.78;;;;;;;14.83;100.00;100416.94;5113409;28;20180;-91
2023/07/19 01:50:47;;;;;;;7.38;2.38;;;;;;;15.02;100.00;100403.34;5113266;28;20035;-92
2023/07/19 01:53:13;;;;;;;;;;;;;;;14.98;100.00;100408.78;5115043;28;20086;-92
2023/07/19 01:55:39;;;;;;;9.70;3.22;;;;;;;14.88;100.00;100407.84;5114709;28;19998;-93
2023/07/19 01:58:05;;;;;;;8.02;3.05;;;;;;;14.83;100.00;100402.16;5114495;28;20028;-93
2023/07/19 02:00:30;;;;;;;11.70;3.17;;;;;;;14.82;100.00;100410.88;5113323;28;20027;-93
2023/07/19 02:02:55;;;;;;;11.05;3.13;;;;;;;14.78;100.00;100409.47;5113152;28;20019;-92
2023/07/19 02:05:21;;;;;;;5.47;2.70;;;;;;;14.80;100.00;100407.56;5112913;28;20012;-92
2023/07/19 02:07:46;;;;;;;6.10;2.53;;;;;;;14.82;100.00;100403.09;5114277;28;20114;-92
2023/07/19 02:10:11;;;;;;;9.65;2.97;;;;;;;14.82;100.00;100403.09;5114338;28;20027;-92
2023/07/19 02:12:37;;;;;;;5.28;2.50;;;;;;;14.82;100.00;100410.06;5114280;28;20028;-92
2023/07/19 02:15:02;;;;;;;6.55;2.67;;;;;;;14.78;100.00;100404.28;5113154;28;20046;-92
2023/07/19 02:17:28;;;;;;;5.32;2.53;;;;;;;14.79;100.00;100405.94;5114046;28;20053;-92
2023/07/19 02:19:53;;;;;;;7.10;2.70;;;;;;;14.79;100.00;100405.09;5114192;28;20045;-92
2023/07/19 02:22:18;;;;;;;11.43;3.83;;;;;;;14.82;100.00;100397.91;5114099;28;20023;-92
2023/07/19 02:24:44;;;;;;;4.78;2.63;;;;;;;15.07;100.00;100398.63;5113893;28;20495;-93
2023/07/19 02:27:09;;;;;;;5.85;2.58;;;;;;;14.94;100.00;100399.56;5112489;28;20138;-92
2023/07/19 02:29:34;;;;;;;6.15;2.67;;;;;;;14.90;100.00;100390.38;5112604;28;20537;-91
2023/07/19 02:32:00;;;;;;;6.65;2.92;;;;;;;14.87;100.00;100393.16;5112646;28;20424;-92
2023/07/19 02:34:26;;;;;;;6.80;2.70;;;;;;;14.81;100.00;100392.84;5113825;28;20431;-91
2023/07/19 02:36:51;;;;;;;5.57;2.42;;;;;;;14.78;100.00;100388.69;5113780;28;20027;-92
2023/07/19 02:39:17;;;;;;;7.20;2.45;;;;;;;14.81;100.00;100385.84;5113669;28;20366;-92
2023/07/19 02:41:43;;;;;;;5.75;2.58;;;;;;;14.83;100.00;100390.94;5112343;28;20020;-93
2023/07/19 02:44:08;;;;;;;12.90;3.42;;;;;;;14.89;100.00;100386.09;5113571;28;20045;-92
2023/07/19 02:46:33;;;;;;;7.15;2.58;;;;;;;14.82;100.00;100384.09;5113571;28;20073;-92
2023/07/19 02:48:59;;;;;;;11.52;3.00;;;;;;;14.90;100.00;100387.75;5113345;28;20456;-92
2023/07/19 02:51:24;;;;;;;4.35;2.35;;;;;;;15.04;100.00;100385.88;5113604;28;20107;-92
2023/07/19 02:53:49;;;;;;;8.00;2.97;;;;;;;14.95;100.00;100390.84;5113327;28;20088;-92
2023/07/19 02:56:15;;;;;;;6.93;2.78;;;;;;;14.86;100.00;100391.53;5112050;28;20023;-92
2023/07/19 02:58:41;;;;;;;9.20;3.38;;;;;;;14.84;100.00;100388.22;5113383;28;20024;-92
2023/07/19 03:01:06;;;;;;;8.13;2.83;;;;;;;14.88;100.00;100381.84;5113270;28;20114;-93
2023/07/19 03:03:31;;;;;;;7.55;3.35;;;;;;;14.84;100.00;100393.41;5113180;28;20047;-92
2023/07/19 03:05:57;;;;;;;5.50;2.65;;;;;;;14.96;100.00;100391.66;5113444;28;20081;-92
2023/07/19 03:08:22;;;;;;;6.03;3.15;;;;;;;14.97;100.00;100393.28;5111826;28;20405;-91
2023/07/19 03:10:52;;;;;;;9.20;2.92;;;;;;;14.89;100.00;100391.28;5111664;28;20020;-92
2023/07/19 03:13:17;;;;;;;7.88;3.22;;;;;;;14.85;100.00;100395.09;5112942;28;20027;-91
2023/07/19 03:15:45;;;;;;;10.20;3.22;;;;;;;14.77;100.00;100385.25;5113075;28;20032;-93
2023/07/19 03:18:10;;;;;;;9.30;2.90;;;;;;;14.74;100.00;100393.28;5112867;28;20469;-91
2023/07/19 03:20:36;;;;;;;11.63;3.63;;;;;;;14.67;100.00;100388.66;5113142;28;20023;-92
2023/07/19 03:23:01;;;;;;;4.75;3.08;;;;;;;14.73;100.00;100398.63;5112817;28;20015;-92
2023/07/19 03:25:28;;;;;;;6.18;2.80;;;;;;;14.70;100.00;100394.47;5112948;28;20023;-92
2023/07/19 03:27:54;;;;;;;9.07;3.22;;;;;;;14.73;100.00;100396.00;5112647;28;20046;-92
2023/07/19 03:30:19;;;;;;;11.18;3.72;;;;;;;14.71;100.00;100401.31;5112779;28;20472;-92
2023/07/19 03:32:44;;;;;;;13.98;3.00;;;;;;;14.67;100.00;100402.47;5112507;28;20030;-92
2023/07/19 03:35:10;;;;;;;8.52;4.20;;;;;;;14.75;100.00;100402.75;5112643;28;20023;-92
2023/07/19 03:37:36;;;;;;;7.38;3.10;;;;;;;14.75;100.00;100399.31;5111434;28;20023;-92
2023/07/19 03:40:02;;;;;;;7.93;3.38;;;;;;;14.71;100.00;100395.31;5112667;28;20062;-92
2023/07/19 03:42:28;;;;;;;8.85;2.97;;;;;;;14.67;100.00;100401.66;5112753;28;20027;-93
2023/07/19 03:44:53;;;;;;;5.93;2.70;;;;;;;14.68;100.00;100403.31;5111872;28;20015;-92
2023/07/19 03:47:18;;;;;;;12.10;3.13;;;;;;;14.73;100.00;100401.22;5111071;28;20572;-92
2023/07/19 03:49:44;;;;;;;7.60;2.70;;;;;;;14.70;100.00;100411.81;5112420;28;20027;-92
2023/07/19 03:52:09;;;;;;;7.53;2.90;;;;;;;14.71;100.00;100414.31;5112324;28;20509;-93
2023/07/19 03:54:35;;;;;;;11.07;4.50;;;;;;;14.82;100.00;100413.47;5111019;28;20097;-92
2023/07/19 03:57:01;;;;;;;11.00;4.22;;;;;;;14.78;100.00;100414.69;5112511;28;20532;-92
2023/07/19 03:59:26;;;;;;;8.85;3.40;;;;;;;14.85;100.00;100409.81;5111104;28;20461;-92
2023/07/19 04:01:52;;;;;;;8.70;3.58;;;;;;;14.85;100.00;100404.63;5112124;28;20034;-93
2023/07/19 04:04:17;;;;;;;10.57;3.40;;;;;;;14.82;100.00;100413.47;5112279;28;20046;-92
2023/07/19 04:06:43;;;;;;;10.32;3.85;;;;;;;14.84;100.00;100411.59;5112210;28;20082;-92
2023/07/19 04:09:08;;;;;;;10.40;4.38;;;;;;;14.91;100.00;100410.19;5112269;28;20019;-92
2023/07/19 04:11:33;;;;;;;7.57;3.17;;;;;;;14.89;100.00;100406.88;5110899;28;20073;-92
2023/07/19 04:13:59;;;;;;;7.75;3.15;;;;;;;14.89;100.00;100412.06;5112298;28;20024;-92
2023/07/19 04:16:24;;;;;;;7.10;3.60;;;;;;;14.93;100.00;100413.50;5110755;28;20023;-92
2023/07/19 04:18:49;;;;;;;14.30;3.97;;;;;;;14.95;100.00;100411.63;5111197;28;20020;-92
2023/07/19 04:21:15;;;;;;;10.50;3.63;;;;;;;14.94;100.00;100419.53;5112171;28;20366;-92
2023/07/19 04:23:40;;;;;;;10.85;4.03;;;;;;;15.09;100.00;100407.94;5112207;28;20303;-92
2023/07/19 04:26:05;;;;;;;7.00;3.38;;;;;;;15.02;100.00;100418.94;5110639;28;20016;-92
2023/07/19 04:28:31;;;;;;;9.90;4.65;;;;;;;14.99;100.00;100409.59;5110776;28;20019;-92
2023/07/19 04:30:56;;;;;;;10.82;3.50;;;;;;;14.97;100.00;100408.88;5111979;28;20102;-92
2023/07/19 04:33:22;;;;;;;9.88;4.03;;;;;;;14.95;100.00;100416.81;5110639;28;20136;-92
2023/07/19 04:35:47;;;;;;;12.38;4.10;;;;;;;15.02;100.00;100416.34;5110690;28;20024;-92
2023/07/19 04:38:13;;;;;;;13.25;4.65;;;;;;;15.04;100.00;100411.84;5110738;28;20028;-92
2023/07/19 04:40:38;;;;;;;14.35;4.60;;;;;;;15.05;100.00;100416.94;5111936;28;20051;-92
2023/07/19 04:43:04;;;;;;;17.90;5.20;;;;;;;15.00;100.00;100421.69;5111995;28;20032;-93
2023/07/19 04:45:30;;;;;;;8.05;4.43;;;;;;;15.04;100.00;100422.25;5111934;28;20102;-92
2023/07/19 04:47:55;;;;;;;8.73;4.15;;;;;;;15.08;100.00;100421.09;5111786;28;20459;-92
2023/07/19 04:50:23;;;;;;;6.68;3.25;;;;;;;15.13;100.00;100429.34;5110601;28;20110;-92
2023/07/19 04:52:49;;;;;;;15.05;4.65;;;;;;;15.17;100.00;100430.78;5111808;28;20050;-93
2023/07/19 04:55:14;;;;;;;11.15;4.22;;;;;;;15.12;100.00;100433.72;5111060;28;20056;-92
2023/07/19 04:57:39;;;;;;;12.90;3.83;;;;;;;15.12;100.00;100430.31;5115716;28;20027;-92
2023/07/19 05:00:11;;;;;;;8.18;3.55;;;;;;;15.29;100.00;100440.25;5114307;28;20029;-92
2023/07/19 05:02:36;;;;;;;;;;;;;;;15.28;100.00;100435.16;5116041;28;20122;-93
2023/07/19 05:05:02;;;;;;;13.13;3.70;;;;;;;15.22;100.00;100433.84;5115579;28;19974;-92
2023/07/19 05:07:27;;;;;;;10.82;3.38;;;;;;;15.26;100.00;100440.44;5114195;28;20122;-92
2023/07/19 05:09:52;;;;;;;12.32;4.18;;;;;;;15.38;100.00;100438.69;5115349;28;20076;-94
2023/07/19 05:12:18;;;;;;;8.75;3.13;;;;;;;15.38;100.00;100431.69;5115421;28;20068;-92
2023/07/19 05:14:43;;;;;;;19.90;3.88;;;;;;;15.41;100.00;100434.09;5115192;28;20024;-92
2023/07/19 05:17:09;;;;;;;14.85;3.75;;;;;;;15.43;100.00;100436.53;5114111;28;20046;-92
2023/07/19 05:19:34;;;;;;;11.82;3.50;;;;;;;15.45;100.00;100433.84;5115344;28;20020;-92
2023/07/19 05:21:59;;;;;;;15.43;4.10;;;;;;;15.60;100.00;100440.44;5115308;28;20055;-93
2023/07/19 05:24:26;;;;;;;12.05;3.50;;;;;;;15.62;100.00;100441.16;5115079;28;20019;-92
2023/07/19 05:26:52;;;;;;;11.05;3.47;;;;;;;15.72;100.00;100446.47;5115107;28;20047;-92
2023/07/19 05:29:17;;;;;;;13.73;3.85;;;;;;;15.79;100.00;100448.47;5114979;28;20055;-92
2023/07/19 05:31:42;;;;;;;13.50;3.88;;;;;;;15.80;100.00;100450.16;5114871;28;20016;-92
2023/07/19 05:34:08;;;;;;;10.95;3.42;;;;;;;15.81;100.00;100443.97;5115078;28;20030;-93
2023/07/19 05:36:34;;;;;;;12.35;4.13;;;;;;;15.83;100.00;100455.09;5115272;28;20027;-92
2023/07/19 05:39:01;;;;;;;14.65;3.78;;;;;;;15.89;100.00;100453.78;5115143;28;20020;-92
2023/07/19 05:41:27;;;;;;;10.70;3.28;;;;;;;15.92;100.00;100452.72;5115168;28;20020;-93
2023/07/19 05:43:53;;;;;;;7.45;3.55;;;;;;;15.83;100.00;100444.69;5114933;28;20053;-93
2023/07/19 05:46:18;;;;;;;11.68;3.75;;;;;;;15.91;100.00;100445.84;5113750;28;20027;-92
2023/07/19 05:48:44;;;;;;;14.02;3.92;;;;;;;15.95;100.00;100447.28;5114909;28;20034;-93
2023/07/19 05:51:09;;;;;;;11.32;3.47;;;;;;;15.91;100.00;100456.28;5113438;28;20035;-93
2023/07/19 05:53:34;;;;;;;7.25;3.47;;;;;;;15.93;100.00;100446.56;5114872;28;20022;-93
2023/07/19 05:56:00;;;;;;;7.93;3.20;;;;;;;15.91;100.00;100448.47;5114991;28;20438;-93
2023/07/19 05:58:27;;;;;;;10.05;3.30;;;;;;;15.98;100.00;100453.06;5113482;28;20031;-92
2023/07/19 06:00:52;;;;;;;11.60;3.75;;;;;;;16.22;100.00;100455.47;5113321;28;20385;-93
2023/07/19 06:03:18;;;;;;;12.38;4.65;;;;;;;16.52;100.00;100451.31;5113253;28;20035;-93
2023/07/19 06:05:44;;;;;;;10.88;2.85;;;;;;;16.62;100.00;100452.19;5114499;28;20031;-92
2023/07/19 06:08:10;;;;;;;11.98;3.53;;;;;;;16.56;100.00;100452.72;5114451;28;20023;-92
2023/07/19 06:10:36;;;;;;;9.05;3.50;;;;;;;16.57;100.00;100449.16;5114826;28;20431;-92
2023/07/19 06:13:03;;;;;;;10.65;4.05;;;;;;;16.57;100.00;100456.13;5113362;28;20019;-93
2023/07/19 06:15:29;;;;;;;10.10;3.95;;;;;;;16.68;100.00;100459.53;5113061;28;20030;-92
2023/07/19 06:17:54;;;;;;;15.60;4.75;;;;;;;16.86;100.00;100453.75;5114435;28;20408;-93
2023/07/19 06:20:20;;;;;;;10.55;3.20;;;;;;;16.86;100.00;100465.00;5113124;28;20041;-93
2023/07/19 06:22:45;;;;;;;9.00;3.45;;;;;;;16.94;100.00;100461.75;5114212;28;20466;-92
2023/07/19 06:25:11;;;;;;;11.98;3.00;;;;;;;16.89;100.00;100463.91;5114538;28;20133;-93
2023/07/19 06:27:37;;;;;;;12.13;3.20;;;;;;;16.84;100.00;100460.88;5114315;28;20035;-94
2023/07/19 06:30:03;;;;;;;12.55;3.45;;;;;;;16.68;100.00;100462.13;5113916;28;20020;-92
2023/07/19 06:32:28;;;;;;;9.30;3.05;;;;;;;16.68;100.00;100466.53;5113985;28;20496;-92
2023/07/19 06:34:53;;;;;;;11.15;3.83;;;;;;;16.58;100.00;100466.44;5114141;28;20020;-92
2023/07/19 06:37:19;;;;;;;13.45;3.92;;;;;;;16.47;100.00;100471.69;5112752;28;20411;-93
2023/07/19 06:39:46;;;;;;;9.63;3.20;;;;;;;16.38;100.00;100477.66;5114045;28;20026;-93
2023/07/19 06:42:11;;;;;;;6.93;3.33;;;;;;;16.45;100.00;100479.63;5112589;28;20052;-93
2023/07/19 06:44:37;;;;;;;6.57;2.97;;;;;;;16.53;100.00;100484.22;5113734;28;20016;-92
2023/07/19 06:47:03;;;;;;;9.80;3.47;;;;;;;16.62;100.00;100482.66;5113684;28;20027;-93
2023/07/19 06:49:29;;;;;;;9.38;3.22;;;;;;;17.04;100.00;100480.88;5112678;28;20019;-93
2023/07/19 06:51:54;;;;;;;6.43;3.22;;;;;;;17.19;100.00;100485.75;5113882;28;20435;-93
2023/07/19 06:54:20;;;;;;;5.57;2.90;;;;;;;17.19;100.00;100489.22;5113717;28;20023;-93
2023/07/19 06:56:45;;;;;;;9.30;3.40;;;;;;;17.10;100.00;100492.59;5113658;28;20027;-92
2023/07/19 06:59:10;;;;;;;8.57;3.78;;;;;;;17.15;100.00;100500.03;5112317;28;20049;-93
2023/07/19 07:01:36;;;;;;;7.18;3.17;;;;;;;17.08;100.00;100500.53;5113517;28;20521;-93
2023/07/19 07:04:02;;;;;;;6.97;3.15;;;;;;;17.11;100.00;100504.66;5112319;28;20061;-92
2023/07/19 07:06:27;;;;;;;8.82;3.55;;;;;;;17.08;100.00;100507.53;5112106;28;20019;-92
2023/07/19 07:08:52;;;;;;;7.95;3.55;;;;;;;17.10;100.00;100503.03;5111975;28;20024;-93
2023/07/19 07:11:18;;;;;;;10.25;3.40;;;;;;;17.00;100.00;100497.75;5111770;28;20051;-92
2023/07/19 07:13:43;;;;;;;9.00;2.88;;;;;;;17.01;100.00;100509.81;5113252;28;20536;-92
2023/07/19 07:16:09;;;;;;;11.15;4.00;;;;;;;16.99;100.00;100509.13;5112058;28;20381;-93
2023/07/19 07:18:35;;;;;;;6.85;2.72;;;;;;;16.90;100.00;100502.09;5112625;28;20031;-93
2023/07/19 07:21:00;;;;;;;8.88;2.85;;;;;;;16.99;100.00;100501.31;5112810;28;20020;-92
2023/07/19 07:23:26;;;;;;;4.25;2.50;;;;;;;20.05;89.23;100500.91;5112855;28;20526;-93
2023/07/19 07:25:54;;;;;;;6.53;2.58;;;;;;;18.91;91.06;100502.88;5111800;28;20431;-93
2023/07/19 07:28:20;;;;;;;6.00;2.40;;;;;;;19.46;85.04;100499.56;5111599;28;20031;-94
2023/07/19 07:30:45;;;;;;;6.20;2.08;;;;;;;18.70;90.24;100502.19;5111935;28;20024;-92
2023/07/19 07:33:10;;;;;;;3.80;1.83;;;;;;;18.17;93.54;100511.28;5111949;28;20554;-92
2023/07/19 07:35:36;;;;;;;5.40;3.17;;;;;;;18.17;96.51;100511.28;5111494;28;20051;-93
2023/07/19 07:38:01;;;;;;;5.35;2.15;;;;;;;21.49;76.12;100513.84;5111434;28;20499;-93
2023/07/19 07:40:27;;;;;;;3.30;1.77;;;;;;;23.48;66.61;100513.69;5112684;28;20024;-93
2023/07/19 07:42:53;;;;;;;4.45;1.70;;;;;;;23.55;64.51;100519.06;5111272;28;20322;-93
2023/07/19 07:45:18;;;;;;;2.28;1.25;;;;;;;24.19;60.70;100526.84;5111609;28;20031;-95
2023/07/19 07:47:43;;;;;;;3.53;1.50;;;;;;;23.37;58.48;100521.94;5112657;28;20503;-93
2023/07/19 07:50:09;;;;;;;4.80;1.73;;;;;;;21.77;66.41;100527.59;5111227;28;20019;-94
2023/07/19 07:52:35;;;;;;;4.03;1.52;;;;;;;21.12;68.37;100517.56;5111259;28;20076;-93
2023/07/19 07:55:01;;;;;;;8.27;1.40;;;;;;;20.43;69.87;100527.81;5111084;28;20062;-92
2023/07/19 07:57:26;;;;;;;3.45;1.15;;;;;;;19.84;74.20;100526.56;5112452;28;20084;-92
2023/07/19 07:59:51;;;;;;;3.25;0.90;;;;;;;21.09;69.14;100517.84;5112322;28;20062;-92
2023/07/19 08:02:17;;;;;;;1.92;1.00;;;;;;;22.41;63.31;100530.53;5111047;28;20149;-93
2023/07/19 08:04:42;;;;;;;2.70;1.00;;;;;;;22.75;61.21;100532.22;5111268;28;20233;-93
2023/07/19 08:07:08;;;;;;;3.72;1.02;;;;;;;22.89;58.31;100528.09;5112277;28;20034;-94
2023/07/19 08:09:34;;;;;;;2.13;0.95;;;;;;;23.81;57.33;100524.09;5111077;28;20050;-93
2023/07/19 08:11:59;;;;;;;4.68;1.40;;;;;;;23.15;57.53;100534.00;5110817;28;20015;-93
2023/07/19 08:14:25;;;;;;;2.13;0.70;;;;;;;23.57;55.67;100529.44;5112225;28;20466;-94
2023/07/19 08:16:53;;;;;;;4.95;0.63;;;;;;;24.16;54.16;100531.66;5112312;28;20034;-95
2023/07/19 08:19:18;;;;;;;1.50;0.52;;;;;;;23.93;52.85;100533.25;5110982;28;20107;-94
2023/07/19 08:21:44;;;;;;;2.60;0.80;;;;;;;24.29;53.58;100530.09;5111186;28;20118;-92
2023/07/19 08:24:09;;;;;;;3.05;1.30;;;;;;;25.33;50.45;100526.88;5112063;28;20470;-94
2023/07/19 08:26:35;;;;;;;2.05;0.90;;;;;;;26.27;48.46;100533.09;5110606;28;20019;-94
2023/07/19 08:29:00;;;;;;;1.30;0.70;;;;;;;25.15;49.19;100532.50;5112323;28;20423;-93
2023/07/19 08:31:25;;;;;;;1.83;0.82;;;;;;;24.48;50.16;100530.63;5114889;28;20023;-92
2023/07/19 08:33:55;;;;;;;1.45;0.80;;;;;;;24.14;52.98;100534.44;5116131;28;20028;-94
2023/07/19 08:36:20;;;;;;;3.70;0.95;;;;;;;23.54;52.16;100537.69;5116220;28;20369;-93
2023/07/19 08:38:47;;;;;;;2.88;1.00;;;;;;;24.16;52.48;100532.47;5116383;28;20022;-94
2023/07/19 08:41:12;;;;;;;2.53;0.60;;;;;;;25.52;49.51;100528.97;5116096;28;20064;-94
2023/07/19 08:43:38;;;;;;;2.35;0.80;;;;;;;25.28;48.92;100531.91;5116013;28;20012;-94
2023/07/19 08:46:04;;;;;;;2.35;0.77;;;;;;;25.54;48.70;100532.25;5114728;28;20028;-93
2023/07/19 08:48:34;;;;;;;2.17;0.75;;;;;;;25.02;49.04;100530.50;5114742;28;20027;-92
2023/07/19 08:51:01;;;;;;;2.10;0.73;;;;;;;25.42;48.73;100533.72;5114764;28;20031;-94
2023/07/19 08:53:27;;;;;;;3.22;0.82;;;;;;;25.77;48.45;100531.31;5115894;28;20094;-94
2023/07/19 08:55:53;;;;;;;2.45;0.60;;;;;;;25.92;49.01;100534.78;5114415;28;20019;-93
2023/07/19 08:58:19;;;;;;;3.20;0.70;;;;;;;25.96;47.46;100535.22;5115909;28;20030;-93
2023/07/19 09:00:46;;;;;;;7.00;0.60;;;;;;;25.84;47.09;100537.50;5114453;28;20028;-93
2023/07/19 09:03:12;;;;;;;2.22;0.82;;;;;;;26.57;45.85;100537.47;5115608;28;20453;-93
2023/07/19 09:05:38;;;;;;;3.35;0.55;;;;;;;25.90;46.90;100539.44;5115653;28;20102;-93
2023/07/19 09:08:04;;;;;;;1.65;0.60;;;;;;;24.99;47.50;100533.47;5115458;28;20031;-94
2023/07/19 09:10:30;;;;;;;1.02;0.52;;;;;;;24.28;48.47;100538.16;5114148;28;20111;-93
2023/07/19 09:12:55;;;;;;;3.40;0.55;;;;;;;24.46;49.34;100537.88;5114038;28;20072;-94
2023/07/19 09:15:21;;;;;;;2.38;0.82;;;;;;;25.52;48.18;100539.53;5114261;28;20020;-94
2023/07/19 09:17:47;;;;;;;1.75;0.43;;;;;;;25.53;47.97;100533.28;5114286;28;20041;-93
2023/07/19 09:20:14;;;;;;;3.55;0.63;;;;;;;24.78;49.88;100542.09;5115333;28;20019;-94
2023/07/19 09:22:40;;;;;;;1.90;0.70;;;;;;;25.57;47.45;100542.44;5114003;28;20015;-94
2023/07/19 09:25:09;;;;;;;2.60;0.68;;;;;;;25.89;47.38;100540.44;5115645;28;20107;-94
2023/07/19 09:27:35;;;;;;;1.98;0.60;;;;;;;25.88;46.42;100544.09;5115219;28;20112;-94
2023/07/19 09:30:03;;;;;;;3.63;0.40;;;;;;;25.52;47.02;100550.13;5113930;28;20031;-94
2023/07/19 09:32:29;;;;;;;0.90;0.30;;;;;;;25.70;46.78;100548.91;5114080;28;20023;-94
2023/07/19 09:34:56;;;;;;;2.53;0.25;;;;;;;25.04;47.63;100552.25;5114939;28;20023;-94
2023/07/19 09:37:22;;;;;;;2.60;0.60;;;;;;;25.02;48.44;100554.28;5114978;28;20020;-95
2023/07/19 09:39:48;;;;;;;3.08;0.60;;;;;;;25.03;47.93;100550.63;5113650;28;20477;-95
2023/07/19 09:42:14;;;;;;;3.47;0.88;;;;;;;25.19;48.51;100550.50;5112933;28;20036;-96
2023/07/19 09:44:40;;;;;;;1.92;0.60;;;;;;;25.29;47.71;100544.09;5115138;28;20058;-94
2023/07/19 09:47:09;;;;;;;2.28;0.63;;;;;;;24.86;49.60;100549.13;5114938;28;20458;-93
2023/07/19 09:49:36;;;;;;;1.95;0.40;;;;;;;25.28;48.06;100553.03;5114649;28;20026;-94
2023/07/19 09:52:03;;;;;;;7.70;0.90;;;;;;;25.56;45.70;100548.75;5114694;28;20031;-94
2023/07/19 09:54:33;;;;;;;1.40;0.40;;;;;;;26.45;45.69;100551.19;5114604;28;20475;-94
2023/07/19 09:56:59;;;;;;;1.35;0.38;;;;;;;27.26;44.98;100548.22;5114565;28;20069;-94
2023/07/19 09:59:29;;;;;;;0.75;0.30;;;;;;;27.35;42.71;100550.69;5114602;28;20066;-94
2023/07/19 10:01:55;;;;;;;3.00;0.40;;;;;;;27.27;42.95;100549.84;5114482;28;20089;-93
2023/07/19 10:04:24;;;;;;;1.50;0.30;;;;;;;27.22;42.68;100551.44;5114572;28;20411;-95
2023/07/19 10:07:10;;;;;;;1.88;0.28;;;;;;;26.83;43.16;100558.88;5113221;28;20027;-94
2023/07/19 10:09:37;;;;;;;2.85;0.30;;;;;;;27.01;42.12;100555.75;5112387;28;20039;-94
2023/07/19 10:12:23;;;;;;;0.65;0.35;;;;;;;27.14;43.49;100559.50;5113305;28;20069;-94
2023/07/19 10:15:06;;;;;;;0.30;0.10;;;;;;;26.66;43.63;100562.81;5114586;27;20524;-94
2023/07/19 10:17:42;;;;;;;3.53;0.30;;;;;;;25.81;44.17;100565.13;5112893;28;20028;-94
2023/07/19 10:20:13;;;;;;;1.38;0.20;;;;;;;26.43;42.81;100563.81;5112943;28;20419;-93
2023/07/19 10:22:44;;;;;;;0.73;0.17;;;;;;;27.36;43.50;100562.94;5114156;28;20073;-94
2023/07/19 10:25:14;;;;;;;3.45;0.20;;;;;;;27.05;42.24;100562.31;5112743;28;20397;-94
2023/07/19 10:27:39;;;;;;;1.08;0.15;;;;;;;26.73;42.67;100558.41;5114047;28;20031;-94
2023/07/19 10:30:05;;;;;;;0.20;0.17;;;;;;;26.50;43.42;100557.75;5114013;28;20024;-94
2023/07/19 10:32:31;;;;;;;3.60;0.20;;;;;;;26.50;43.12;100563.03;5114077;28;20618;-94
2023/07/19 10:34:56;;;;;;;0.70;0.10;;;;;;;25.56;45.21;100561.97;5113945;28;20261;-93
2023/07/19 10:37:22;;;;;;;2.42;0.28;;;;;;;26.63;45.06;100573.81;5113801;28;20062;-94
2023/07/19 10:39:48;;;;;;;0.47;0.10;;;;;;;26.18;44.23;100565.16;5112505;28;20076;-94
2023/07/19 10:42:13;;;;;;;0.80;0.22;;;;;;;25.65;46.70;100575.91;5113817;28;20465;-94
2023/07/19 10:44:40;;;;;;;1.25;0.20;;;;;;;25.47;45.79;100576.28;5113558;28;20028;-94
2023/07/19 10:47:05;;;;;;;2.60;0.35;;;;;;;24.83;47.71;100575.91;5113382;28;20063;-93
2023/07/19 10:49:31;;;;;;;2.15;0.25;;;;;;;26.41;45.00;100575.56;5112230;28;20426;-93
2023/07/19 10:51:58;;;;;;;3.25;0.20;;;;;;;27.20;42.63;100575.47;5113556;28;20031;-93
2023/07/19 10:54:25;;;;;;;1.08;0.20;;;;;;;27.67;45.64;100587.16;5111235;28;20016;-94
2023/07/19 10:56:52;;;;;;;1.95;0.30;;;;;;;27.16;42.94;100578.69;5113506;28;20039;-94
2023/07/19 10:59:18;;;;;;;3.03;0.20;;;;;;;26.40;43.16;100588.00;5112092;28;20051;-93
2023/07/19 11:01:48;;;;;;;1.10;0.28;;;;;;;27.30;41.95;100583.09;5112062;28;20031;-94
2023/07/19 11:04:14;;;;;;;0.88;0.20;;;;;;;27.21;41.84;100578.94;5113295;28;20020;-93
2023/07/19 11:06:54;;;;;;;0.65;0.20;;;;;;;27.80;41.00;100578.47;5113172;28;20024;-94
2023/07/19 11:09:22;;;;;;;1.07;0.10;;;;;;;27.92;40.14;100581.38;5111964;28;20440;-95
2023/07/19 11:11:48;;;;;;;0.60;0.00;;;;;;;27.38;40.34;100582.09;5111925;28;20040;-94
2023/07/19 11:15:00;;;;;;;1.30;0.20;;;;;;;28.20;39.40;100575.16;5111801;28;20020;-94